Llanarth, United Kingdom
Current Conditions -  °F | °C
As of 1:50 AM on Tuesday 23 Dec 2014 (Local Time) from EGOP Reporting Station
Broken Clouds Broken Clouds  
Wind Chill: 52°   Ceiling: 4000
Heat Index: 52°   Visibility: 6mi
Dew Point: 48°   Wind: 30mph
Humidity: 88%   Direction: 240°WSW
Pressure: 30.06"   Gusts: NA
Location:  52.19°N, 4.31°W
Report Text: EGOP 230150Z AUTO 24026KT 9999 // BKN040/// 11/09 Q1018
Loading
Personal Weather Stations






























Interactive Weather Map New forecast layout! Learn more

10-Day Weather Forecast

Advertisements
Track Severe Weather on mobile